createdAt,value
2022-08-03T00:01:49.652Z,7.93
2022-08-03T00:04:16.429Z,5.80
2022-08-03T00:06:43.152Z,6.30
2022-08-03T00:09:10.656Z,5.53
2022-08-03T00:11:37.683Z,7.20
2022-08-03T00:14:06.159Z,6.38
2022-08-03T00:16:32.999Z,6.88
2022-08-03T00:19:00.783Z,3.67
2022-08-03T00:21:28.593Z,8.20
2022-08-03T00:23:55.534Z,7.28
2022-08-03T00:26:22.455Z,6.43
2022-08-03T00:28:50.161Z,7.82
2022-08-03T00:31:23.140Z,5.95
2022-08-03T00:34:03.757Z,7.82
2022-08-03T00:36:31.093Z,8.90
2022-08-03T00:38:57.745Z,5.10
2022-08-03T00:41:24.469Z,5.45
2022-08-03T00:43:51.412Z,7.38
2022-08-03T00:46:21.797Z,7.57
2022-08-03T00:48:53.100Z,7.90
2022-08-03T00:51:21.663Z,6.47
2022-08-03T00:53:49.329Z,6.90
2022-08-03T00:56:17.145Z,6.10
2022-08-03T00:58:44.958Z,6.68
2022-08-03T01:01:12.456Z,6.97
2022-08-03T01:03:39.780Z,6.55
2022-08-03T01:06:46.300Z,6.75
2022-08-03T01:09:19.282Z,6.45
2022-08-03T01:12:00.469Z,7.05
2022-08-03T01:14:38.375Z,7.55
2022-08-03T01:17:24.735Z,8.30
2022-08-03T01:20:00.180Z,10.27
2022-08-03T01:22:44.948Z,7.35
2022-08-03T01:25:39.521Z,10.95
2022-08-03T01:28:48.150Z,8.82
2022-08-03T01:31:20.422Z,6.53
2022-08-03T01:33:51.410Z,7.10
2022-08-03T01:36:24.421Z,7.32
2022-08-03T01:38:56.035Z,6.25
2022-08-03T01:41:28.879Z,8.55
2022-08-03T01:44:27.593Z,7.40
2022-08-03T01:46:49.116Z,10.23
2022-08-03T01:49:17.088Z,9.23
2022-08-03T01:52:02.877Z,5.95
2022-08-03T01:54:35.549Z,8.00
2022-08-03T01:57:03.990Z,7.38
2022-08-03T01:59:34.433Z,6.05
2022-08-03T02:02:28.986Z,8.77
2022-08-03T02:04:52.681Z,8.35
2022-08-03T02:07:19.773Z,7.82
2022-08-03T02:09:51.588Z,8.20
2022-08-03T02:12:19.772Z,7.53
2022-08-03T02:14:48.697Z,5.88
2022-08-03T02:17:16.139Z,7.85
2022-08-03T02:19:43.791Z,9.35
2022-08-03T02:22:12.856Z,8.30
2022-08-03T02:24:40.088Z,7.20
2022-08-03T02:27:17.910Z,9.65
2022-08-03T02:29:48.543Z,10.10
2022-08-03T02:32:20.276Z,6.68
2022-08-03T02:34:50.493Z,11.32
2022-08-03T02:37:19.779Z,13.05
2022-08-03T02:39:48.297Z,9.93
2022-08-03T02:42:16.483Z,9.38
2022-08-03T02:44:47.761Z,8.73
2022-08-03T02:47:15.640Z,8.48
2022-08-03T02:49:50.536Z,9.20
2022-08-03T02:52:19.976Z,9.15
2022-08-03T02:54:49.229Z,7.85
2022-08-03T02:57:19.210Z,9.52
2022-08-03T02:59:46.934Z,10.65
2022-08-03T03:02:15.852Z,11.13
2022-08-03T03:05:50.670Z,10.65
2022-08-03T03:07:33.984Z,9.35
2022-08-03T03:10:20.587Z,9.57
2022-08-03T03:12:48.268Z,9.23
2022-08-03T03:15:14.995Z,9.20
2022-08-03T03:17:43.505Z,10.00
2022-08-03T03:20:11.522Z,11.77
2022-08-03T03:22:40.090Z,10.30
2022-08-03T03:25:10.769Z,13.02
2022-08-03T03:27:37.806Z,7.70
2022-08-03T03:30:05.685Z,9.63
2022-08-03T03:32:32.488Z,9.65
2022-08-03T03:34:59.896Z,11.60
2022-08-03T03:37:27.017Z,9.40
2022-08-03T03:39:54.710Z,8.20
2022-08-03T03:42:21.860Z,10.20
2022-08-03T03:44:48.718Z,10.25
2022-08-03T03:47:15.526Z,9.77
2022-08-03T03:49:43.939Z,8.70
2022-08-03T03:52:10.956Z,12.73
2022-08-03T03:54:45.010Z,9.50
2022-08-03T03:57:12.945Z,11.20
2022-08-03T03:59:43.763Z,8.23
2022-08-03T04:02:11.993Z,10.57
2022-08-03T04:04:57.728Z,10.05
2022-08-03T04:07:45.046Z,9.57
2022-08-03T04:10:38.560Z,8.02
2022-08-03T04:13:10.008Z,9.02
2022-08-03T04:15:39.580Z,11.43
2022-08-03T04:18:09.357Z,11.43
2022-08-03T04:20:38.762Z,10.18
2022-08-03T04:23:15.411Z,11.32
2022-08-03T04:25:43.864Z,10.88
2022-08-03T04:28:30.486Z,8.68
2022-08-03T04:31:00.786Z,14.07
2022-08-03T04:33:32.492Z,11.18
2022-08-03T04:36:03.741Z,11.30
2022-08-03T04:38:36.553Z,8.93
2022-08-03T04:43:33.840Z,13.48
2022-08-03T04:46:02.499Z,11.73
2022-08-03T04:48:29.598Z,8.43
2022-08-03T04:50:56.404Z,12.23
2022-08-03T04:53:23.250Z,10.82
2022-08-03T04:55:50.023Z,11.02
2022-08-03T04:58:16.687Z,12.20
2022-08-03T05:00:45.377Z,10.18
2022-08-03T05:03:23.485Z,11.15
2022-08-03T05:06:01.792Z,13.00
2022-08-03T05:08:36.252Z,13.50
2022-08-03T05:11:13.635Z,10.85
2022-08-03T05:13:40.350Z,11.40
2022-08-03T05:16:07.135Z,11.13
2022-08-03T05:18:33.887Z,12.02
2022-08-03T05:21:00.584Z,9.02
2022-08-03T05:23:27.695Z,12.05
2022-08-03T05:25:54.354Z,10.90
2022-08-03T05:28:21.043Z,11.98
2022-08-03T05:30:47.746Z,12.27
2022-08-03T05:33:14.518Z,13.95
2022-08-03T05:36:02.640Z,11.23
2022-08-03T05:38:35.093Z,11.88
2022-08-03T05:41:22.507Z,12.43
2022-08-03T05:43:55.089Z,11.32
2022-08-03T05:46:23.185Z,13.18
2022-08-03T05:48:50.831Z,9.30
2022-08-03T05:51:17.574Z,12.50
2022-08-03T05:53:45.021Z,12.18
2022-08-03T05:56:14.730Z,12.00
2022-08-03T05:58:43.936Z,13.93
2022-08-03T06:01:10.724Z,13.05
2022-08-03T06:03:37.398Z,12.82
2022-08-03T06:06:04.326Z,11.75
2022-08-03T06:08:30.980Z,11.93
2022-08-03T06:10:57.760Z,13.27
2022-08-03T06:13:24.421Z,17.33
2022-08-03T06:15:51.158Z,11.77
2022-08-03T06:18:17.796Z,13.55
2022-08-03T06:20:44.527Z,14.43
2022-08-03T06:23:16.066Z,16.35
2022-08-03T06:25:44.473Z,11.85
2022-08-03T06:28:35.160Z,14.50
2022-08-03T06:30:59.289Z,13.00
2022-08-03T06:34:30.417Z,11.75
2022-08-03T06:36:13.604Z,12.25
2022-08-03T06:38:40.278Z,11.93
2022-08-03T06:41:07.131Z,17.13
2022-08-03T06:43:37.547Z,12.10
2022-08-03T06:46:05.551Z,10.82
2022-08-03T06:48:32.466Z,15.50
2022-08-03T06:50:59.367Z,9.95
2022-08-03T06:53:26.144Z,13.18
2022-08-03T06:55:54.965Z,11.77
2022-08-03T06:58:22.746Z,11.25
2022-08-03T07:00:49.711Z,13.25
2022-08-03T07:03:16.687Z,11.77
2022-08-03T07:05:45.638Z,10.18
2022-08-03T07:08:12.780Z,13.43
2022-08-03T07:10:39.644Z,11.77
2022-08-03T07:13:06.740Z,16.52
2022-08-03T07:15:53.793Z,12.75
2022-08-03T07:18:28.336Z,15.23
2022-08-03T07:20:57.794Z,9.93
2022-08-03T07:23:25.417Z,13.10
2022-08-03T07:25:52.281Z,13.68
2022-08-03T07:28:19.440Z,15.60
2022-08-03T07:30:46.112Z,17.25
2022-08-03T07:33:12.909Z,17.60
2022-08-03T07:35:40.022Z,14.05
2022-08-03T07:38:06.974Z,14.00
2022-08-03T07:40:33.704Z,10.65
2022-08-03T07:43:00.471Z,13.65
2022-08-03T07:45:27.182Z,13.20
2022-08-03T07:47:54.319Z,16.08
2022-08-03T07:50:22.639Z,14.85
2022-08-03T07:52:50.310Z,16.15
2022-08-03T07:55:25.193Z,12.45
2022-08-03T07:58:03.923Z,14.32
2022-08-03T08:00:31.163Z,10.15
2022-08-03T08:02:58.214Z,10.20
2022-08-03T08:05:25.328Z,15.32
2022-08-03T08:07:52.264Z,11.60
2022-08-03T08:10:19.303Z,14.48
2022-08-03T08:12:46.127Z,11.43
2022-08-03T08:15:12.998Z,15.23
2022-08-03T08:17:51.788Z,12.65
2022-08-03T08:22:57.652Z,14.13
2022-08-03T08:25:25.487Z,13.63
2022-08-03T08:28:29.285Z,12.77
2022-08-03T08:30:39.008Z,13.10
2022-08-03T08:33:05.784Z,10.85
2022-08-03T08:35:32.504Z,16.05
2022-08-03T08:38:05.588Z,10.80
2022-08-03T08:40:33.060Z,10.23
2022-08-03T08:42:59.843Z,13.80
2022-08-03T08:45:27.566Z,14.90
2022-08-03T08:48:01.044Z,14.13
2022-08-03T08:50:30.463Z,11.02
2022-08-03T08:53:01.908Z,12.02
2022-08-03T08:55:29.495Z,14.07
2022-08-03T08:58:04.857Z,10.10
2022-08-03T09:00:31.721Z,12.43
2022-08-03T09:02:59.778Z,12.82
2022-08-03T09:05:54.670Z,13.98
2022-08-03T09:08:14.163Z,15.93
2022-08-03T09:10:40.835Z,14.13
2022-08-03T09:13:08.477Z,12.68
2022-08-03T09:15:35.585Z,15.60
2022-08-03T09:18:04.547Z,15.85
2022-08-03T09:20:33.786Z,21.52
2022-08-03T09:23:09.742Z,14.38
2022-08-03T09:26:00.091Z,12.93
2022-08-03T09:28:59.493Z,14.40
2022-08-03T09:31:35.490Z,13.10
2022-08-03T09:34:07.438Z,13.75
2022-08-03T09:36:50.909Z,11.57
2022-08-03T09:39:37.488Z,14.45
2022-08-03T09:42:23.820Z,12.45
2022-08-03T09:44:52.214Z,14.10
2022-08-03T09:47:30.747Z,14.55
2022-08-03T09:50:04.734Z,14.07
2022-08-03T09:52:39.377Z,14.75
2022-08-03T09:56:21.156Z,13.05
2022-08-03T09:58:09.375Z,14.95
2022-08-03T10:00:57.169Z,10.68
2022-08-03T10:03:25.853Z,10.70
2022-08-03T10:05:57.469Z,13.65
2022-08-03T10:08:26.203Z,10.63
2022-08-03T10:10:58.419Z,12.10
2022-08-03T10:13:25.167Z,9.88
2022-08-03T10:16:24.017Z,13.07
2022-08-03T10:18:38.606Z,14.27
2022-08-03T10:21:10.528Z,11.80
2022-08-03T10:23:38.784Z,8.98
2022-08-03T10:26:07.829Z,13.73
2022-08-03T10:28:47.006Z,10.95
2022-08-03T10:31:14.463Z,11.57
2022-08-03T10:33:49.582Z,11.63
2022-08-03T10:36:18.198Z,10.18
2022-08-03T10:38:52.524Z,11.45
2022-08-03T10:41:21.727Z,11.90
2022-08-03T10:43:58.033Z,12.95
2022-08-03T10:46:26.171Z,13.13
2022-08-03T10:48:53.834Z,10.98
2022-08-03T10:51:21.395Z,11.98
2022-08-03T10:53:55.001Z,11.82
2022-08-03T10:57:04.876Z,11.45
2022-08-03T10:59:47.011Z,8.27
2022-08-03T11:02:15.472Z,13.07
2022-08-03T11:04:42.811Z,10.40
2022-08-03T11:07:23.792Z,9.75
2022-08-03T11:09:55.641Z,10.32
2022-08-03T11:12:33.212Z,11.25
2022-08-03T11:15:10.529Z,10.38
2022-08-03T11:17:46.746Z,12.93
2022-08-03T11:20:46.131Z,12.95
2022-08-03T11:23:13.775Z,10.02
2022-08-03T11:26:10.663Z,15.38
2022-08-03T11:28:40.686Z,12.23
2022-08-03T11:31:48.205Z,10.65
2022-08-03T11:34:11.332Z,14.05
2022-08-03T11:37:33.427Z,9.88
2022-08-03T11:40:02.369Z,8.25
2022-08-03T11:42:29.336Z,10.73
2022-08-03T11:45:01.611Z,7.65
2022-08-03T11:49:59.008Z,7.53
2022-08-03T11:52:27.348Z,11.88
2022-08-03T11:54:56.442Z,9.43
2022-08-03T11:59:15.214Z,11.52
2022-08-03T12:00:30.880Z,7.25
2022-08-03T12:02:59.756Z,10.23
2022-08-03T12:05:36.917Z,11.20
2022-08-03T12:08:06.636Z,11.52
2022-08-03T12:10:34.394Z,7.63
2022-08-03T12:13:02.496Z,12.05
2022-08-03T12:15:31.571Z,8.85
2022-08-03T12:17:58.365Z,10.38
2022-08-03T12:20:34.409Z,9.13
2022-08-03T12:23:06.509Z,10.23
2022-08-03T12:25:39.517Z,11.07
2022-08-03T12:28:37.128Z,6.57
2022-08-03T12:31:09.481Z,8.70
2022-08-03T12:34:15.236Z,10.80
2022-08-03T12:36:55.813Z,9.70
2022-08-03T12:39:27.810Z,7.95
2022-08-03T12:41:56.033Z,9.15
2022-08-03T12:44:35.157Z,9.80
2022-08-03T12:47:03.795Z,5.65
2022-08-03T12:49:48.224Z,8.73
2022-08-03T12:52:16.112Z,7.07
2022-08-03T12:54:43.915Z,8.60
2022-08-03T12:57:16.386Z,6.80
2022-08-03T12:59:52.824Z,8.82
2022-08-03T13:02:23.666Z,8.48
2022-08-03T13:04:52.114Z,5.85
2022-08-03T13:07:20.122Z,7.15
2022-08-03T13:09:51.049Z,9.00
2022-08-03T13:12:23.210Z,8.52
2022-08-03T13:17:18.276Z,6.00
2022-08-03T13:19:46.090Z,7.93
2022-08-03T13:22:21.192Z,6.93
2022-08-03T13:24:50.491Z,8.57
2022-08-03T13:28:01.730Z,6.53
2022-08-03T13:30:05.026Z,9.40
2022-08-03T13:32:32.471Z,10.00
2022-08-03T13:34:59.226Z,9.82
2022-08-03T13:37:26.577Z,8.65
2022-08-03T13:39:58.675Z,7.32
2022-08-03T13:42:34.518Z,9.50
2022-08-03T13:45:01.915Z,10.63
2022-08-03T13:47:29.281Z,7.18
2022-08-03T13:50:00.967Z,8.77
2022-08-03T13:52:34.024Z,8.70
2022-08-03T13:55:02.013Z,7.13
2022-08-03T13:58:03.346Z,6.53
2022-08-03T14:00:26.960Z,7.28
2022-08-03T14:03:02.977Z,7.28
2022-08-03T14:05:34.440Z,7.15
2022-08-03T14:08:04.215Z,7.13
2022-08-03T14:10:35.664Z,5.88
2022-08-03T14:13:03.159Z,8.50
2022-08-03T14:15:29.897Z,7.35
2022-08-03T14:17:58.806Z,6.30
2022-08-03T14:20:38.582Z,8.10
2022-08-03T14:23:14.525Z,6.35
2022-08-03T14:25:43.439Z,5.47
2022-08-03T14:28:18.312Z,4.47
2022-08-03T14:30:45.459Z,4.70
2022-08-03T14:33:12.438Z,7.07
2022-08-03T14:35:39.349Z,6.00
2022-08-03T14:38:06.435Z,7.72
2022-08-03T14:40:33.474Z,6.38
2022-08-03T14:43:00.152Z,4.65
2022-08-03T14:45:26.833Z,4.75
2022-08-03T14:50:32.767Z,5.45
2022-08-03T14:50:45.451Z,4.05
2022-08-03T14:53:14.007Z,7.85
2022-08-03T14:55:50.969Z,6.45
2022-08-03T14:58:23.163Z,7.50
2022-08-03T15:00:51.407Z,6.30
2022-08-03T15:03:22.994Z,6.15
2022-08-03T15:05:54.171Z,7.20
2022-08-03T15:08:22.708Z,6.43
2022-08-03T15:10:50.416Z,4.55
2022-08-03T15:13:18.065Z,6.15
2022-08-03T15:15:44.869Z,5.88
2022-08-03T15:18:11.592Z,4.43
2022-08-03T15:20:46.986Z,5.00
2022-08-03T15:23:17.408Z,6.32
2022-08-03T15:26:31.583Z,6.88
2022-08-03T15:28:32.422Z,6.28
2022-08-03T15:30:59.770Z,6.03
2022-08-03T15:33:26.505Z,5.45
2022-08-03T15:35:53.411Z,5.72
2022-08-03T15:38:22.902Z,5.35
2022-08-03T15:40:55.801Z,6.30
2022-08-03T15:43:25.601Z,10.45
2022-08-03T15:46:19.093Z,4.68
2022-08-03T15:48:39.915Z,5.82
2022-08-03T15:51:08.013Z,7.50
2022-08-03T15:53:34.992Z,4.70
2022-08-03T15:56:04.239Z,7.55
2022-08-03T15:59:03.925Z,6.78
2022-08-03T16:01:21.466Z,5.50
2022-08-03T16:03:48.293Z,5.75
2022-08-03T16:06:15.092Z,6.35
2022-08-03T16:08:41.870Z,4.57
2022-08-03T16:11:08.875Z,5.97
2022-08-03T16:14:13.045Z,7.88
2022-08-03T16:16:22.711Z,7.13
2022-08-03T16:18:49.409Z,5.68
2022-08-03T16:21:19.402Z,5.72
2022-08-03T16:23:47.317Z,7.85
2022-08-03T16:26:14.280Z,8.77
2022-08-03T16:28:41.263Z,6.25
2022-08-03T16:31:09.024Z,5.28
2022-08-03T16:33:35.777Z,7.40
2022-08-03T16:36:02.558Z,5.55
2022-08-03T16:38:29.543Z,4.45
2022-08-03T16:40:56.218Z,5.28
2022-08-03T16:43:22.959Z,7.78
2022-08-03T16:45:49.833Z,6.57
2022-08-03T16:48:17.681Z,6.20
2022-08-03T16:50:44.885Z,6.75
2022-08-03T16:53:15.702Z,7.55
2022-08-03T16:58:41.800Z,4.63
2022-08-03T17:01:21.687Z,6.30
2022-08-03T17:04:03.258Z,4.97
2022-08-03T17:06:37.162Z,6.03
2022-08-03T17:09:18.991Z,5.50
2022-08-03T17:11:49.502Z,4.95
2022-08-03T17:14:21.576Z,6.78
2022-08-03T17:16:52.812Z,6.93
2022-08-03T17:19:23.192Z,8.68
2022-08-03T17:22:04.785Z,6.85
2022-08-03T17:24:35.493Z,6.93
2022-08-03T17:27:23.175Z,5.80
2022-08-03T17:30:04.595Z,5.47
2022-08-03T17:32:37.084Z,6.28
2022-08-03T17:35:13.001Z,7.25
2022-08-03T17:37:57.473Z,5.15
2022-08-03T17:40:29.531Z,4.78
2022-08-03T17:42:59.088Z,6.65
2022-08-03T17:45:25.830Z,8.02
2022-08-03T17:48:12.481Z,8.57
2022-08-03T17:50:55.850Z,6.35
2022-08-03T17:53:31.301Z,7.95
2022-08-03T17:56:44.634Z,5.10
2022-08-03T17:59:51.615Z,7.47
2022-08-03T18:02:47.558Z,5.43
2022-08-03T18:05:17.489Z,6.25
2022-08-03T18:08:01.496Z,5.97
2022-08-03T18:10:34.106Z,5.85
2022-08-03T18:13:10.285Z,3.42
2022-08-03T18:15:46.048Z,4.30
2022-08-03T18:18:32.194Z,6.72
2022-08-03T18:21:06.748Z,3.88
2022-08-03T18:23:37.752Z,5.30
2022-08-03T18:26:12.155Z,4.68
2022-08-03T18:28:39.698Z,5.25
2022-08-03T18:31:11.658Z,7.32
2022-08-03T18:34:32.255Z,5.88
2022-08-03T18:36:31.806Z,5.95
2022-08-03T18:39:02.933Z,6.80
2022-08-03T18:41:32.100Z,6.00
2022-08-03T18:44:07.606Z,6.60
2022-08-03T18:47:06.875Z,7.25
2022-08-03T18:49:52.081Z,6.82
2022-08-03T18:52:53.132Z,6.57
2022-08-03T18:58:28.600Z,9.88
2022-08-03T19:01:58.165Z,6.13
2022-08-03T19:04:16.902Z,7.68
2022-08-03T19:06:45.917Z,5.00
2022-08-03T19:09:22.871Z,3.78
2022-08-03T19:12:14.387Z,8.88
2022-08-03T19:14:49.024Z,7.60
2022-08-03T19:17:21.651Z,4.95
2022-08-03T19:19:51.156Z,6.05
2022-08-03T19:22:20.718Z,7.15
2022-08-03T19:24:49.217Z,5.30
2022-08-03T19:27:16.281Z,9.05
2022-08-03T19:29:58.358Z,6.95
2022-08-03T19:32:31.773Z,8.23
2022-08-03T19:35:03.254Z,6.35
2022-08-03T19:37:38.506Z,7.32
2022-08-03T19:40:10.624Z,8.75
2022-08-03T19:42:43.599Z,10.07
2022-08-03T19:45:14.703Z,9.10
2022-08-03T19:48:00.232Z,6.60
2022-08-03T19:50:29.752Z,9.32
2022-08-03T19:52:57.770Z,8.35
2022-08-03T19:55:28.570Z,8.30
2022-08-03T19:58:01.145Z,6.18
2022-08-03T20:00:36.978Z,8.02
2022-08-03T20:03:22.038Z,5.60
2022-08-03T20:05:52.148Z,5.72
2022-08-03T20:08:23.029Z,7.63
2022-08-03T20:10:51.340Z,6.40
2022-08-03T20:13:19.652Z,5.72
2022-08-03T20:15:48.987Z,6.72
2022-08-03T20:18:20.344Z,6.25
2022-08-03T20:20:58.356Z,5.97
2022-08-03T20:23:37.401Z,5.75
2022-08-03T20:26:05.424Z,5.85
2022-08-03T20:28:50.366Z,6.05
2022-08-03T20:31:18.767Z,7.07
2022-08-03T20:33:48.672Z,6.65
2022-08-03T20:36:17.904Z,5.93
2022-08-03T20:38:46.994Z,6.45
2022-08-03T20:41:15.821Z,6.70
2022-08-03T20:43:42.604Z,8.70
2022-08-03T20:46:32.187Z,4.95
2022-08-03T20:48:58.785Z,6.72
2022-08-03T20:51:49.057Z,5.82
2022-08-03T20:54:28.715Z,5.03
2022-08-03T20:57:06.988Z,6.15
2022-08-03T20:59:50.730Z,7.03
2022-08-03T21:02:29.976Z,8.02
2022-08-03T21:05:03.613Z,6.95
2022-08-03T21:08:03.805Z,7.75
2022-08-03T21:10:30.316Z,7.18
2022-08-03T21:13:00.961Z,5.72
2022-08-03T21:13:24.171Z,7.15
2022-08-03T21:16:03.261Z,7.57
2022-08-03T21:18:46.293Z,7.20
2022-08-03T21:21:15.485Z,7.28
2022-08-03T21:23:49.054Z,5.78
2022-08-03T21:26:18.493Z,9.60
2022-08-03T21:28:47.496Z,8.02
2022-08-03T21:31:23.662Z,7.40
2022-08-03T21:33:55.090Z,6.20
2022-08-03T21:36:21.739Z,8.75
2022-08-03T21:38:56.125Z,7.32
2022-08-03T21:41:24.855Z,9.88
2022-08-03T21:43:51.558Z,7.25
2022-08-03T21:46:19.874Z,5.55
2022-08-03T21:48:50.084Z,8.27
2022-08-03T21:51:18.354Z,6.82
2022-08-03T21:54:03.571Z,10.15
2022-08-03T21:56:54.144Z,8.48
2022-08-03T21:59:23.011Z,9.77
2022-08-03T22:01:55.380Z,7.80
2022-08-03T22:04:51.020Z,7.63
2022-08-03T22:07:13.159Z,9.43
2022-08-03T22:09:40.424Z,9.10
2022-08-03T22:12:23.611Z,8.75
2022-08-03T22:15:00.200Z,7.93
2022-08-03T22:17:54.824Z,7.28
2022-08-03T22:20:20.302Z,7.65
2022-08-03T22:22:55.131Z,7.22
2022-08-03T22:25:29.436Z,9.00
2022-08-03T22:28:00.769Z,7.30
2022-08-03T22:30:28.186Z,6.55
2022-08-03T22:32:56.226Z,8.50
2022-08-03T22:35:25.257Z,8.05
2022-08-03T22:37:54.658Z,7.88
2022-08-03T22:40:21.616Z,8.93
2022-08-03T22:42:52.268Z,7.80
2022-08-03T22:46:06.846Z,9.77
2022-08-03T22:48:08.115Z,7.78
2022-08-03T22:50:35.101Z,8.75
2022-08-03T22:53:01.910Z,6.88
2022-08-03T22:55:29.050Z,8.20
2022-08-03T22:57:56.480Z,7.57
2022-08-03T23:00:23.798Z,7.43
2022-08-03T23:02:53.473Z,7.57
2022-08-03T23:06:02.102Z,6.13
2022-08-03T23:08:19.670Z,7.13
2022-08-03T23:10:47.964Z,7.55
2022-08-03T23:13:19.166Z,10.23
2022-08-03T23:15:57.060Z,6.13
2022-08-03T23:18:25.323Z,8.20
2022-08-03T23:20:53.306Z,10.30
2022-08-03T23:23:20.607Z,8.20
2022-08-03T23:25:49.377Z,7.57
2022-08-03T23:28:16.842Z,8.02
2022-08-03T23:30:44.658Z,7.30
2022-08-03T23:33:17.173Z,8.35
2022-08-03T23:36:28.528Z,7.25
2022-08-03T23:38:49.169Z,7.70
2022-08-03T23:41:18.664Z,8.27
2022-08-03T23:43:52.375Z,7.90
2022-08-03T23:46:22.603Z,6.75
2022-08-03T23:48:50.776Z,7.13
2022-08-03T23:51:41.582Z,7.53
2022-08-03T23:54:31.891Z,8.25
2022-08-03T23:57:15.346Z,8.68
